• Join FlightAware (Why Join?)
  • Login
  • US Flag 
11:08AM EST


 

Airport Tracker/Info


-or-


 

Live Flight TrackerFlight Track Log ✈ DAL6035 ✈ 14-Apr-2013 ✈ KMHT - KLGA

Flight Track Log - Related Links

Times and Time Zones

All times are in EDT time to prevent confusion due to time zone crossing. See the DAL6035 flight status page for this flight to view local times or setup timezone preferences in your user account.

Time Position Orientation Groundspeed Altitude Reporting Facility
EDT Latitude Longitude Course Direction KTS MPH feet Rate Location/Type
01:21PM 42.9833 -71.4500 58° Northeast 194 223 3,100  Level KA90
01:23PM 43.0308 -71.3467 58° Northeast 294 338 6,300 2,160 Climbing Boston Center
01:24PM 43.0486 -71.2411 77° East 283 326 8,600 1,980 Climbing Boston Center
01:25PM 43.0642 -71.1500 77° East 277 319 10,400 1,740 Climbing Boston Center
01:26PM 43.0772 -71.0189 82° East 302 348 12,100 1,500 Climbing Boston Center
01:27PM 43.0281 -70.9264 126° Southeast 308 354 13,400 1,440 Climbing Boston Center
01:28PM 42.9319 -70.9117 174° South 289 333 15,100 1,560 Climbing Boston Center
01:29PM 42.8533 -70.9503 200° South 303 349 16,600 1,440 Climbing Boston Center
01:30PM 42.7539 -70.9953 198° South 338 389 18,100 1,320 Climbing Boston Center
01:31PM 42.6753 -71.0339 200° South 343 395 19,300 1,260 Climbing Boston Center
01:32PM 42.5819 -71.0808 200° South 355 409 20,700 1,260 Climbing Boston Center
01:33PM 42.5014 -71.1503 212° Southwest 355 409 21,900 600 Climbing Boston Center
01:34PM 42.4694 -71.2664 250° West 319 367 22,000  Climbing Boston Center
01:35PM 42.4456 -71.3933 256° West 327 376 22,000  Level Boston Center
01:36PM 42.4194 -71.5092 253° West 333 383 22,000 -600 Level Boston Center
01:37PM 42.3911 -71.6278 252° West 333 383 20,900 -1,380 Descending Boston Center
01:38PM 42.3692 -71.7375 255° West 327 376 19,300 -1,560 Descending Boston Center
01:39PM 42.3447 -71.8558 254° West 305 351 17,800 -1,380 Descending Boston Center
01:40PM 42.3244 -71.9514 254° West 305 351 16,600 -960 Descending Boston Center
01:41PM 42.2978 -72.0725 253° West 305 351 16,000 -300 Descending Boston Center
01:42PM 42.2792 -72.1678 255° West 300 345 16,000  Level Boston Center
01:43PM 42.2544 -72.2858 254° West 300 345 16,000  Level Boston Center
01:44PM 42.2317 -72.3869 253° West 300 345 16,000  Level Boston Center
01:45PM 42.1961 -72.5017 247° West 300 345 16,000  Level Boston Center
01:46PM 42.1481 -72.5914 234° Southwest 318 366 16,000  Level Boston Center
01:47PM 42.0958 -72.6892 234° Southwest 331 381 16,000 -180 Level Boston Center
01:48PM 42.0414 -72.7922 235° Southwest 337 388 15,700 -720 Descending Boston Center
01:49PM 41.9889 -72.8869 233° Southwest 337 388 14,600 -780 Descending Boston Center
01:50PM 41.9406 -72.9786 235° Southwest 325 374 14,000 -300 Descending Boston Center
01:51PM 41.8733 -73.1008 234° Southwest 313 360 14,000  Level Boston Center
01:52PM 41.8269 -73.1867 234° Southwest 318 366 14,000  Level Boston Center
01:53PM 41.7678 -73.2919 233° Southwest 318 366 14,000  Level Boston Center
01:54PM 41.7150 -73.3717 228° Southwest 323 372 14,000 -720 Level Boston Center
01:56PM 41.5667 -73.5333 219° Southwest 310 357 12,000 -1,080 Descending New York TRACON
01:57PM 41.5167 -73.6000 225° Southwest 284 327 10,800 -1,200 Descending New York TRACON
01:58PM 41.4500 -73.6667 217° Southwest 265 305 9,600 -900 Descending New York TRACON
01:59PM 41.4000 -73.7333 225° Southwest 261 300 9,000 -900 Descending New York TRACON
02:00PM 41.3167 -73.7167 171° South 305 351 7,900 -1,140 Descending New York TRACON
02:01PM 41.2500 -73.6833 159° South 268 308 6,800 -1,380 Descending New York TRACON
02:02PM 41.1833 -73.6667 169° South 258 297 5,200 -1,320 Descending New York TRACON
02:03PM 41.1167 -73.6333 159° South 265 305 4,200 -600 Descending New York TRACON
02:04PM 41.0500 -73.6167 169° South 261 300 4,000 -120 Descending New York TRACON
02:05PM 40.9833 -73.5833 159° South 265 305 4,000 -60 Level New York TRACON
02:06PM 40.9167 -73.6167 201° Southwest 246 283 3,900  Descending New York TRACON
02:07PM 40.8500 -73.6500 201° Southwest 251 289 4,000  Climbing New York TRACON
02:08PM 40.7833 -73.7000 210° Southwest 242 278 4,000  Level New York TRACON
02:09PM 40.7833 -73.7833 270° West 232 267 4,000  Level New York TRACON
02:10PM 40.7833 -73.8667 270° West 232 267 4,000  Level New York TRACON
02:11PM 40.7667 -73.9500 255° West 229 264 4,000 -420 Level New York TRACON
02:12PM 40.7333 -74.0000 229° Southwest 202 232 3,200 -720 Descending New York TRACON
02:13PM 40.7000 -73.9500 131° Southeast 217 250 2,600 -720 Descending New York TRACON
02:14PM 40.7333 -73.9000 49° Northeast 170 196 1,800 -780 Descending New York TRACON
02:15PM 40.7333 -73.8500 90° East 163 188 1,200 -720 Descending New York TRACON